Terminal Aerodrome Forecast
Issued by NWS Jackson, KY

Home | Current Version | Previous Version | Text Only | Print | Product List | Glossary On
Versions: 1 2 3 4 5 6 7 8 9 10 11 12
187
FTUS43 KJKL 230534
TAFLOZ
TAF
KLOZ 230534Z 2306/2406 00000KT 4SM -SHRA SCT025 OVC040
     FM230800 00000KT P6SM OVC010
     FM231300 VRB03KT P6SM SCT020 BKN035
     FM231600 VRB03KT P6SM SCT040
     FM240000 VRB03KT P6SM SKC=

USA.gov is the U.S. government's official web portal to all federal, state and local government web resources and services.